SVA341 OEJN-DAAG
Flight info
| Callsign | SVA341 |
|---|---|
| Flight time | N/A |
| Altitude | 40000 |
| Route | BOMOX M686 OTEMO T55 KUNKI P751 METRU UP868 ARLOS DCT OMENI UL874 DIMAO UZ888 BABOR UA31 ALR |
| Aircraft | B77W/H-SDE2E3FGHIRWXY/L |
Departure
| Time | 2026-05-07 15:36 |
|---|---|
| Airport | King Abdulaziz International Airport (OEJN) |
Arrival
| Time | N/A |
|---|---|
| Airport | Houari Boumediene Airport (DAAG) |
| Time | Latitude | Longitude | Altitude | Speed | Heading |
|---|---|---|---|---|---|
| 2026-05-07 15:09 | 21.67582 | 39.16980 | 36 ft | 0 kts | 68° |
| 2026-05-07 15:21 | 21.67577 | 39.16967 | 36 ft | 3 kts | 63° |
| 2026-05-07 15:21 | 21.67566 | 39.16948 | 35 ft | 3 kts | 53° |
| 2026-05-07 15:21 | 21.67554 | 39.16932 | 34 ft | 3 kts | 45° |
| 2026-05-07 15:22 | 21.67539 | 39.16918 | 32 ft | 2 kts | 40° |
| 2026-05-07 15:22 | 21.67536 | 39.16914 | 32 ft | 0 kts | 40° |
| 2026-05-07 15:26 | 21.67543 | 39.16915 | 36 ft | 2 kts | 7° |
| 2026-05-07 15:26 | 21.67563 | 39.16904 | 36 ft | 1 kts | 328° |
| 2026-05-07 15:26 | 21.67592 | 39.16884 | 36 ft | 8 kts | 329° |
| 2026-05-07 15:27 | 21.67619 | 39.16870 | 36 ft | 1 kts | 334° |
| 2026-05-07 15:27 | 21.67621 | 39.16869 | 36 ft | 0 kts | 334° |
| 2026-05-07 15:27 | 21.67626 | 39.16866 | 36 ft | 1 kts | 334° |
| 2026-05-07 15:27 | 21.67639 | 39.16860 | 36 ft | 3 kts | 335° |
| 2026-05-07 15:28 | 21.67673 | 39.16843 | 36 ft | 9 kts | 333° |
| 2026-05-07 15:28 | 21.67705 | 39.16772 | 36 ft | 14 kts | 256° |
| 2026-05-07 15:28 | 21.67664 | 39.16654 | 36 ft | 19 kts | 250° |
| 2026-05-07 15:28 | 21.67621 | 39.16526 | 36 ft | 19 kts | 250° |
| 2026-05-07 15:29 | 21.67576 | 39.16394 | 36 ft | 19 kts | 250° |
| 2026-05-07 15:29 | 21.67531 | 39.16264 | 35 ft | 19 kts | 250° |
| 2026-05-07 15:29 | 21.67468 | 39.16158 | 35 ft | 12 kts | 194° |
| 2026-05-07 15:29 | 21.67385 | 39.16184 | 35 ft | 13 kts | 157° |
| 2026-05-07 15:30 | 21.67301 | 39.16221 | 36 ft | 14 kts | 159° |
| 2026-05-07 15:30 | 21.67194 | 39.16264 | 37 ft | 18 kts | 159° |
| 2026-05-07 15:30 | 21.67057 | 39.16320 | 38 ft | 23 kts | 159° |
| 2026-05-07 15:30 | 21.66903 | 39.16382 | 39 ft | 28 kts | 159° |
| 2026-05-07 15:31 | 21.66723 | 39.16451 | 39 ft | 27 kts | 161° |
| 2026-05-07 15:31 | 21.66562 | 39.16516 | 40 ft | 21 kts | 159° |
| 2026-05-07 15:31 | 21.66444 | 39.16562 | 40 ft | 16 kts | 159° |
| 2026-05-07 15:31 | 21.66352 | 39.16600 | 40 ft | 13 kts | 159° |
| 2026-05-07 15:32 | 21.66269 | 39.16633 | 40 ft | 13 kts | 160° |
| 2026-05-07 15:32 | 21.66189 | 39.16630 | 40 ft | 11 kts | 232° |
| 2026-05-07 15:32 | 21.66158 | 39.16545 | 39 ft | 13 kts | 257° |
| 2026-05-07 15:32 | 21.66188 | 39.16462 | 38 ft | 13 kts | 329° |
| 2026-05-07 15:33 | 21.66224 | 39.16445 | 38 ft | 0 kts | 339° |
| 2026-05-07 15:35 | 21.66273 | 39.16425 | 38 ft | 21 kts | 339° |
| 2026-05-07 15:35 | 21.66546 | 39.16318 | 40 ft | 76 kts | 340° |
| 2026-05-07 15:35 | 21.67311 | 39.16015 | 38 ft | 155 kts | 339° |
| 2026-05-07 15:36 | 21.68307 | 39.15630 | 569 ft | 169 kts | 339° |
| 2026-05-07 15:36 | 21.69411 | 39.15177 | 1482 ft | 165 kts | 340° |
| 2026-05-07 15:36 | 21.70457 | 39.14757 | 2382 ft | 166 kts | 340° |
| 2026-05-07 15:36 | 21.71653 | 39.14288 | 2715 ft | 199 kts | 340° |
| 2026-05-07 15:37 | 21.73032 | 39.13746 | 2935 ft | 233 kts | 339° |
| 2026-05-07 15:37 | 21.74679 | 39.13097 | 3196 ft | 267 kts | 339° |
| 2026-05-07 15:37 | 21.76455 | 39.12397 | 3951 ft | 278 kts | 339° |
| 2026-05-07 15:37 | 21.78293 | 39.11672 | 4903 ft | 281 kts | 339° |
| 2026-05-07 15:38 | 21.80135 | 39.10947 | 5644 ft | 280 kts | 339° |
| 2026-05-07 15:38 | 21.81986 | 39.10220 | 6032 ft | 283 kts | 339° |
| 2026-05-07 15:38 | 21.83830 | 39.09494 | 6657 ft | 284 kts | 339° |
| 2026-05-07 15:38 | 21.85687 | 39.08762 | 7623 ft | 284 kts | 338° |
| 2026-05-07 15:39 | 21.87535 | 39.08033 | 8575 ft | 287 kts | 336° |
| 2026-05-07 15:39 | 21.89437 | 39.07280 | 9468 ft | 291 kts | 336° |
| 2026-05-07 15:39 | 21.91297 | 39.06461 | 10310 ft | 296 kts | 333° |
| 2026-05-07 15:39 | 21.93242 | 39.05514 | 10787 ft | 319 kts | 332° |
| 2026-05-07 15:40 | 21.95363 | 39.04473 | 11020 ft | 350 kts | 333° |
| 2026-05-07 15:40 | 21.97678 | 39.03354 | 11289 ft | 377 kts | 333° |
| 2026-05-07 15:40 | 22.00107 | 39.02194 | 12022 ft | 389 kts | 333° |
| 2026-05-07 15:40 | 22.02610 | 39.01003 | 13000 ft | 396 kts | 332° |
| 2026-05-07 15:41 | 22.05148 | 38.99791 | 13960 ft | 402 kts | 332° |
| 2026-05-07 15:41 | 22.07715 | 38.98562 | 14844 ft | 408 kts | 332° |
| 2026-05-07 15:41 | 22.10328 | 38.97312 | 15765 ft | 413 kts | 332° |
| 2026-05-07 15:41 | 22.12975 | 38.96044 | 16696 ft | 419 kts | 332° |
| 2026-05-07 15:42 | 22.15667 | 38.94754 | 17596 ft | 425 kts | 332° |
| 2026-05-07 15:42 | 22.18385 | 38.93453 | 18436 ft | 431 kts | 332° |
| 2026-05-07 15:42 | 22.21141 | 38.92137 | 19236 ft | 435 kts | 332° |
| 2026-05-07 15:42 | 22.23904 | 38.90788 | 20090 ft | 432 kts | 328° |
| 2026-05-07 15:43 | 22.26294 | 38.88914 | 20715 ft | 429 kts | 309° |
| 2026-05-07 15:43 | 22.27994 | 38.86317 | 21486 ft | 422 kts | 295° |
| 2026-05-07 15:43 | 22.29406 | 38.83509 | 22215 ft | 428 kts | 295° |
| 2026-05-07 15:43 | 22.30862 | 38.80688 | 22997 ft | 432 kts | 296° |
| 2026-05-07 15:44 | 22.32360 | 38.77839 | 23727 ft | 435 kts | 296° |
| 2026-05-07 15:44 | 22.33866 | 38.75002 | 24360 ft | 438 kts | 296° |
| 2026-05-07 15:44 | 22.35394 | 38.72128 | 24989 ft | 442 kts | 296° |
| 2026-05-07 15:44 | 22.36926 | 38.69242 | 25596 ft | 446 kts | 295° |
| 2026-05-07 15:45 | 22.38474 | 38.66324 | 26198 ft | 449 kts | 295° |
| 2026-05-07 15:45 | 22.40004 | 38.63435 | 26805 ft | 452 kts | 295° |
| 2026-05-07 15:45 | 22.41542 | 38.60530 | 27386 ft | 456 kts | 295° |
| 2026-05-07 15:45 | 22.43146 | 38.57499 | 27977 ft | 459 kts | 295° |
| 2026-05-07 15:46 | 22.46347 | 38.51447 | 29022 ft | 466 kts | 295° |
| 2026-05-07 15:46 | 22.47943 | 38.48427 | 29494 ft | 469 kts | 295° |
| 2026-05-07 15:46 | 22.49607 | 38.45477 | 29870 ft | 478 kts | 300° |
| 2026-05-07 15:47 | 22.51901 | 38.42841 | 29870 ft | 493 kts | 315° |
| 2026-05-07 15:47 | 22.57363 | 38.38328 | 29847 ft | 491 kts | 316° |
| 2026-05-07 15:48 | 22.62696 | 38.33859 | 29842 ft | 490 kts | 316° |
| 2026-05-07 15:48 | 22.68064 | 38.29242 | 30201 ft | 495 kts | 315° |
| 2026-05-07 15:48 | 22.70757 | 38.26906 | 30610 ft | 496 kts | 315° |
| 2026-05-07 15:49 | 22.73429 | 38.24586 | 31047 ft | 497 kts | 315° |
| 2026-05-07 15:49 | 22.76121 | 38.22248 | 31484 ft | 497 kts | 314° |
| 2026-05-07 15:49 | 22.78834 | 38.19893 | 31957 ft | 496 kts | 314° |
| 2026-05-07 15:49 | 22.81524 | 38.17556 | 32287 ft | 498 kts | 314° |
| 2026-05-07 15:50 | 22.84210 | 38.15220 | 32547 ft | 501 kts | 314° |
| 2026-05-07 15:50 | 22.86934 | 38.12852 | 32887 ft | 502 kts | 314° |
| 2026-05-07 15:50 | 22.89660 | 38.10483 | 33304 ft | 501 kts | 314° |
| 2026-05-07 15:50 | 22.92377 | 38.08121 | 33587 ft | 503 kts | 314° |
| 2026-05-07 15:51 | 22.94199 | 38.06534 | 33716 ft | 505 kts | 314° |
| 2026-05-07 15:51 | 22.97869 | 38.03337 | 34041 ft | 506 kts | 313° |
| 2026-05-07 15:51 | 22.99694 | 38.01747 | 34220 ft | 506 kts | 313° |
| 2026-05-07 15:51 | 23.03338 | 37.98572 | 34548 ft | 507 kts | 313° |
| 2026-05-07 15:52 | 23.06089 | 37.96172 | 34781 ft | 508 kts | 313° |
| 2026-05-07 15:52 | 23.07953 | 37.94547 | 35067 ft | 506 kts | 313° |
| 2026-05-07 15:52 | 23.10665 | 37.92184 | 35508 ft | 502 kts | 312° |
| 2026-05-07 15:52 | 23.13389 | 37.89805 | 35742 ft | 503 kts | 312° |
| 2026-05-07 15:53 | 23.16132 | 37.87405 | 35922 ft | 506 kts | 311° |
| 2026-05-07 15:53 | 23.18873 | 37.85004 | 36129 ft | 507 kts | 311° |
| 2026-05-07 15:53 | 23.21628 | 37.82593 | 36368 ft | 507 kts | 311° |
| 2026-05-07 15:53 | 23.24373 | 37.80190 | 36608 ft | 507 kts | 311° |
| 2026-05-07 15:54 | 23.27126 | 37.77780 | 36842 ft | 508 kts | 311° |
| 2026-05-07 15:54 | 23.29883 | 37.75363 | 37055 ft | 509 kts | 311° |
| 2026-05-07 15:54 | 23.32649 | 37.72938 | 37290 ft | 509 kts | 311° |
| 2026-05-07 15:54 | 23.35407 | 37.70518 | 37574 ft | 508 kts | 311° |
| 2026-05-07 15:55 | 23.38118 | 37.68142 | 37939 ft | 506 kts | 311° |
| 2026-05-07 15:55 | 23.40872 | 37.65724 | 38213 ft | 506 kts | 311° |
| 2026-05-07 15:55 | 23.43592 | 37.63334 | 38558 ft | 503 kts | 310° |
| 2026-05-07 15:55 | 23.46320 | 37.60936 | 38778 ft | 503 kts | 311° |
| 2026-05-07 15:56 | 23.49050 | 37.58531 | 38954 ft | 502 kts | 311° |
| 2026-05-07 15:56 | 23.51761 | 37.56144 | 39219 ft | 500 kts | 311° |
| 2026-05-07 15:56 | 23.54456 | 37.53772 | 39643 ft | 494 kts | 311° |
| 2026-05-07 15:56 | 23.57104 | 37.51443 | 39882 ft | 490 kts | 311° |
| 2026-05-07 15:57 | 23.59723 | 37.49136 | 39846 ft | 483 kts | 311° |
| 2026-05-07 15:57 | 23.63989 | 37.45375 | 39852 ft | 475 kts | 311° |
| 2026-05-07 15:58 | 23.69118 | 37.40833 | 39856 ft | 474 kts | 311° |
| 2026-05-07 15:58 | 23.74231 | 37.36298 | 39891 ft | 475 kts | 311° |
| 2026-05-07 15:59 | 23.79398 | 37.31719 | 39859 ft | 477 kts | 311° |
| 2026-05-07 15:59 | 23.84560 | 37.27143 | 39856 ft | 477 kts | 311° |
| 2026-05-07 16:00 | 23.89680 | 37.22601 | 39879 ft | 477 kts | 311° |
| 2026-05-07 16:00 | 23.94820 | 37.18037 | 39860 ft | 477 kts | 311° |
| 2026-05-07 16:01 | 23.99942 | 37.13483 | 39858 ft | 475 kts | 311° |
| 2026-05-07 16:01 | 24.05044 | 37.08942 | 39856 ft | 474 kts | 311° |
| 2026-05-07 16:02 | 24.10159 | 37.04383 | 39870 ft | 474 kts | 311° |
| 2026-05-07 16:02 | 24.15269 | 36.99823 | 39863 ft | 473 kts | 311° |
| 2026-05-07 16:03 | 24.20370 | 36.95268 | 39851 ft | 472 kts | 311° |
| 2026-05-07 16:03 | 24.25442 | 36.90734 | 39860 ft | 470 kts | 311° |
| 2026-05-07 16:04 | 24.30482 | 36.86224 | 39857 ft | 470 kts | 311° |
| 2026-05-07 16:04 | 24.35541 | 36.81690 | 39862 ft | 469 kts | 311° |
| 2026-05-07 16:05 | 24.40551 | 36.77196 | 39873 ft | 469 kts | 311° |
| 2026-05-07 16:05 | 24.45611 | 36.72651 | 39879 ft | 470 kts | 312° |
| 2026-05-07 16:06 | 24.50684 | 36.68091 | 39868 ft | 471 kts | 312° |
| 2026-05-07 16:06 | 24.55762 | 36.63522 | 39873 ft | 471 kts | 312° |
| 2026-05-07 16:07 | 24.60471 | 36.58699 | 39872 ft | 456 kts | 299° |
| 2026-05-07 16:07 | 24.63652 | 36.52836 | 39876 ft | 439 kts | 284° |
| 2026-05-07 16:08 | 24.65629 | 36.46526 | 39879 ft | 436 kts | 282° |
| 2026-05-07 16:08 | 24.67541 | 36.40173 | 39881 ft | 438 kts | 282° |
| 2026-05-07 16:09 | 24.69469 | 36.33856 | 39876 ft | 440 kts | 282° |
| 2026-05-07 16:09 | 24.71438 | 36.27470 | 39874 ft | 441 kts | 282° |
| 2026-05-07 16:10 | 24.73415 | 36.21068 | 39884 ft | 443 kts | 283° |
| 2026-05-07 16:10 | 24.75398 | 36.14640 | 39883 ft | 444 kts | 283° |
| 2026-05-07 16:11 | 24.77384 | 36.08188 | 39883 ft | 446 kts | 283° |
| 2026-05-07 16:11 | 24.79372 | 36.01718 | 39879 ft | 447 kts | 283° |
| 2026-05-07 16:12 | 24.81351 | 35.95265 | 39883 ft | 447 kts | 283° |
| 2026-05-07 16:12 | 24.83338 | 35.88778 | 39882 ft | 447 kts | 283° |
| 2026-05-07 16:13 | 24.85320 | 35.82293 | 39884 ft | 446 kts | 283° |
| 2026-05-07 16:13 | 24.87300 | 35.75804 | 39885 ft | 446 kts | 283° |
| 2026-05-07 16:14 | 24.89274 | 35.69318 | 39892 ft | 446 kts | 283° |
| 2026-05-07 16:14 | 24.91228 | 35.62893 | 39884 ft | 445 kts | 283° |
| 2026-05-07 16:15 | 24.93197 | 35.56405 | 39892 ft | 445 kts | 283° |
| 2026-05-07 16:15 | 24.95154 | 35.49946 | 39917 ft | 445 kts | 284° |
| 2026-05-07 16:16 | 24.97113 | 35.43469 | 39902 ft | 444 kts | 284° |
| 2026-05-07 16:16 | 24.99059 | 35.37021 | 39892 ft | 443 kts | 284° |
| 2026-05-07 16:17 | 25.01001 | 35.30578 | 39898 ft | 442 kts | 284° |
| 2026-05-07 16:17 | 25.02931 | 35.24161 | 39910 ft | 441 kts | 284° |
| 2026-05-07 16:18 | 25.04917 | 35.17808 | 39897 ft | 443 kts | 289° |
| 2026-05-07 16:18 | 25.08059 | 35.11905 | 39911 ft | 450 kts | 301° |
| 2026-05-07 16:19 | 25.12263 | 35.06722 | 39906 ft | 457 kts | 309° |
| 2026-05-07 16:19 | 25.16849 | 35.01842 | 39910 ft | 458 kts | 310° |
| 2026-05-07 16:20 | 25.21407 | 34.96973 | 39911 ft | 458 kts | 310° |
| 2026-05-07 16:20 | 25.25956 | 34.92049 | 39906 ft | 457 kts | 310° |
| 2026-05-07 16:21 | 25.30489 | 34.87112 | 39907 ft | 457 kts | 310° |
| 2026-05-07 16:21 | 25.34933 | 34.82264 | 39915 ft | 457 kts | 310° |
| 2026-05-07 16:22 | 25.39453 | 34.77331 | 39912 ft | 457 kts | 310° |
| 2026-05-07 16:22 | 25.43970 | 34.72393 | 39930 ft | 456 kts | 310° |
| 2026-05-07 16:23 | 25.48491 | 34.67448 | 39944 ft | 457 kts | 310° |
| 2026-05-07 16:23 | 25.53009 | 34.62503 | 39937 ft | 458 kts | 310° |
| 2026-05-07 16:24 | 25.57512 | 34.57567 | 39937 ft | 458 kts | 310° |
| 2026-05-07 16:24 | 25.61737 | 34.52339 | 39942 ft | 455 kts | 306° |
| 2026-05-07 16:25 | 25.65820 | 34.46993 | 39944 ft | 455 kts | 306° |
| 2026-05-07 16:25 | 25.69927 | 34.41629 | 39930 ft | 456 kts | 307° |
| 2026-05-07 16:26 | 25.74033 | 34.36285 | 39925 ft | 455 kts | 307° |
| 2026-05-07 16:26 | 25.78116 | 34.30974 | 39928 ft | 455 kts | 307° |
| 2026-05-07 16:27 | 25.82223 | 34.25622 | 39925 ft | 455 kts | 307° |
| 2026-05-07 16:27 | 25.86326 | 34.20270 | 39929 ft | 454 kts | 307° |
| 2026-05-07 16:28 | 25.90408 | 34.14939 | 39950 ft | 454 kts | 307° |
| 2026-05-07 16:28 | 25.94500 | 34.09587 | 39929 ft | 454 kts | 307° |
| 2026-05-07 16:29 | 25.98579 | 34.04244 | 39923 ft | 454 kts | 307° |
| 2026-05-07 16:29 | 26.02674 | 33.98873 | 39924 ft | 454 kts | 307° |
| 2026-05-07 16:30 | 26.06759 | 33.93506 | 39928 ft | 453 kts | 307° |
| 2026-05-07 16:30 | 26.10824 | 33.88163 | 39922 ft | 452 kts | 307° |
| 2026-05-07 16:31 | 26.14791 | 33.82940 | 39922 ft | 452 kts | 307° |
| 2026-05-07 16:31 | 26.18808 | 33.77646 | 39912 ft | 451 kts | 307° |
| 2026-05-07 16:32 | 26.22853 | 33.72309 | 39916 ft | 450 kts | 307° |
| 2026-05-07 16:32 | 26.26869 | 33.67003 | 39918 ft | 449 kts | 308° |
| 2026-05-07 16:33 | 26.30889 | 33.61686 | 39913 ft | 446 kts | 308° |
| 2026-05-07 16:33 | 26.34856 | 33.56432 | 39910 ft | 444 kts | 308° |
| 2026-05-07 16:34 | 26.38822 | 33.51174 | 39908 ft | 442 kts | 308° |
| 2026-05-07 16:34 | 26.42771 | 33.45932 | 39910 ft | 441 kts | 308° |
| 2026-05-07 16:35 | 26.46708 | 33.40700 | 39906 ft | 441 kts | 308° |
| 2026-05-07 16:35 | 26.50658 | 33.35445 | 39912 ft | 441 kts | 308° |
| 2026-05-07 16:36 | 26.54613 | 33.30176 | 39907 ft | 442 kts | 308° |
| 2026-05-07 16:36 | 26.58545 | 33.24929 | 39907 ft | 443 kts | 308° |
| 2026-05-07 16:37 | 26.62479 | 33.19675 | 39906 ft | 444 kts | 308° |
| 2026-05-07 16:37 | 26.65796 | 33.15240 | 39909 ft | 444 kts | 308° |
| 2026-05-07 16:38 | 26.69751 | 33.09947 | 39910 ft | 443 kts | 308° |
| 2026-05-07 16:38 | 26.73700 | 33.04655 | 39893 ft | 442 kts | 308° |
| 2026-05-07 16:39 | 26.77588 | 32.99438 | 39894 ft | 440 kts | 308° |
| 2026-05-07 16:39 | 26.81488 | 32.94199 | 39890 ft | 439 kts | 308° |
| 2026-05-07 16:40 | 26.85372 | 32.88975 | 39891 ft | 438 kts | 308° |
| 2026-05-07 16:40 | 26.89255 | 32.83747 | 39895 ft | 436 kts | 309° |
| 2026-05-07 16:41 | 26.93123 | 32.78533 | 39893 ft | 434 kts | 309° |
| 2026-05-07 16:41 | 26.96976 | 32.73332 | 39899 ft | 432 kts | 309° |
| 2026-05-07 16:42 | 27.00769 | 32.68206 | 39902 ft | 432 kts | 309° |
| 2026-05-07 16:42 | 27.04611 | 32.63009 | 39908 ft | 431 kts | 308° |
| 2026-05-07 16:43 | 27.08422 | 32.57847 | 39934 ft | 431 kts | 309° |
| 2026-05-07 16:43 | 27.12251 | 32.52654 | 39910 ft | 431 kts | 309° |
| 2026-05-07 16:44 | 27.16045 | 32.47503 | 39919 ft | 430 kts | 309° |
| 2026-05-07 16:44 | 27.19853 | 32.42327 | 39919 ft | 430 kts | 309° |
| 2026-05-07 16:45 | 27.23660 | 32.37144 | 39919 ft | 430 kts | 309° |
| 2026-05-07 16:45 | 27.27452 | 32.31978 | 39937 ft | 430 kts | 309° |
| 2026-05-07 16:46 | 27.31262 | 32.26742 | 39941 ft | 429 kts | 308° |
| 2026-05-07 16:46 | 27.34891 | 32.21469 | 39927 ft | 429 kts | 307° |
| 2026-05-07 16:47 | 27.38479 | 32.16180 | 39941 ft | 429 kts | 307° |
| 2026-05-07 16:47 | 27.42114 | 32.10842 | 39942 ft | 428 kts | 307° |
| 2026-05-07 16:48 | 27.45753 | 32.05514 | 39953 ft | 428 kts | 308° |
| 2026-05-07 16:48 | 27.49368 | 32.00221 | 39972 ft | 429 kts | 308° |
| 2026-05-07 16:49 | 27.53010 | 31.94883 | 39992 ft | 430 kts | 308° |
| 2026-05-07 16:49 | 27.56661 | 31.89525 | 39995 ft | 431 kts | 308° |
| 2026-05-07 16:50 | 27.60310 | 31.84162 | 40011 ft | 432 kts | 308° |
| 2026-05-07 16:50 | 27.63986 | 31.78754 | 40014 ft | 433 kts | 308° |
| 2026-05-07 16:51 | 27.67647 | 31.73360 | 40039 ft | 433 kts | 308° |
| 2026-05-07 16:51 | 27.71312 | 31.67955 | 40044 ft | 434 kts | 308° |
| 2026-05-07 16:52 | 27.74949 | 31.62582 | 40041 ft | 434 kts | 308° |
| 2026-05-07 16:52 | 27.78623 | 31.57150 | 40039 ft | 434 kts | 308° |
| 2026-05-07 16:53 | 27.82281 | 31.51733 | 40028 ft | 434 kts | 308° |
| 2026-05-07 16:53 | 27.85951 | 31.46293 | 40051 ft | 433 kts | 308° |
| 2026-05-07 16:54 | 27.89589 | 31.40891 | 40058 ft | 434 kts | 308° |
| 2026-05-07 16:54 | 27.93245 | 31.35459 | 40062 ft | 433 kts | 308° |
| 2026-05-07 16:55 | 27.96870 | 31.30063 | 40055 ft | 433 kts | 308° |
| 2026-05-07 16:55 | 28.00505 | 31.24648 | 40058 ft | 433 kts | 308° |
| 2026-05-07 16:56 | 28.04143 | 31.19220 | 40056 ft | 433 kts | 308° |
| 2026-05-07 16:56 | 28.09418 | 31.10979 | 40072 ft | 433 kts | 306° |
| 2026-05-07 16:57 | 28.12754 | 31.05302 | 40066 ft | 433 kts | 305° |
| 2026-05-07 16:57 | 28.16001 | 30.99756 | 40059 ft | 432 kts | 305° |
| 2026-05-07 16:58 | 28.19332 | 30.94085 | 40060 ft | 432 kts | 306° |
| 2026-05-07 16:58 | 28.22658 | 30.88430 | 40061 ft | 431 kts | 306° |
| 2026-05-07 16:59 | 28.25996 | 30.82751 | 40064 ft | 431 kts | 306° |
| 2026-05-07 16:59 | 28.29312 | 30.77101 | 40060 ft | 430 kts | 306° |
| 2026-05-07 17:00 | 28.32614 | 30.71468 | 40069 ft | 430 kts | 306° |
| 2026-05-07 17:00 | 28.35929 | 30.65805 | 40060 ft | 430 kts | 306° |
| 2026-05-07 17:01 | 28.39236 | 30.60148 | 40049 ft | 429 kts | 306° |
| 2026-05-07 17:01 | 28.42538 | 30.54492 | 40066 ft | 429 kts | 306° |
| 2026-05-07 17:02 | 28.45794 | 30.48907 | 40069 ft | 429 kts | 306° |
| 2026-05-07 17:02 | 28.49094 | 30.43240 | 40060 ft | 429 kts | 306° |
| 2026-05-07 17:03 | 28.52389 | 30.37573 | 40058 ft | 429 kts | 306° |
| 2026-05-07 17:03 | 28.55655 | 30.31948 | 40060 ft | 428 kts | 306° |
| 2026-05-07 17:04 | 28.58945 | 30.26274 | 40065 ft | 427 kts | 306° |
| 2026-05-07 17:04 | 28.62169 | 30.20708 | 40063 ft | 427 kts | 306° |
| 2026-05-07 17:05 | 28.65430 | 30.15070 | 40064 ft | 426 kts | 306° |
| 2026-05-07 17:05 | 28.68692 | 30.09420 | 40052 ft | 426 kts | 306° |
| 2026-05-07 17:06 | 28.71941 | 30.03789 | 40058 ft | 425 kts | 306° |
| 2026-05-07 17:06 | 28.75168 | 29.98186 | 40087 ft | 424 kts | 306° |
| 2026-05-07 17:07 | 28.78402 | 29.92565 | 40071 ft | 424 kts | 306° |
| 2026-05-07 17:07 | 28.81644 | 29.86922 | 40065 ft | 423 kts | 306° |
| 2026-05-07 17:08 | 28.84866 | 29.81306 | 40052 ft | 423 kts | 307° |
| 2026-05-07 17:08 | 28.88052 | 29.75746 | 40058 ft | 421 kts | 307° |
| 2026-05-07 17:09 | 28.91254 | 29.70148 | 40063 ft | 420 kts | 307° |
| 2026-05-07 17:09 | 28.94443 | 29.64568 | 40064 ft | 419 kts | 307° |
| 2026-05-07 17:10 | 28.97624 | 29.58995 | 40061 ft | 419 kts | 307° |
| 2026-05-07 17:10 | 29.00790 | 29.53438 | 40052 ft | 418 kts | 307° |
| 2026-05-07 17:11 | 29.03960 | 29.47868 | 40065 ft | 417 kts | 307° |
| 2026-05-07 17:11 | 29.07128 | 29.42294 | 40060 ft | 417 kts | 307° |
| 2026-05-07 17:12 | 29.10309 | 29.36808 | 40057 ft | 414 kts | 311° |
| 2026-05-07 17:12 | 29.14135 | 29.31929 | 40064 ft | 411 kts | 317° |
| 2026-05-07 17:13 | 29.18460 | 29.27685 | 40077 ft | 409 kts | 324° |
| 2026-05-07 17:13 | 29.23031 | 29.23788 | 40057 ft | 409 kts | 324° |
| 2026-05-07 17:14 | 29.27600 | 29.19884 | 40065 ft | 409 kts | 324° |
| 2026-05-07 17:14 | 29.32134 | 29.15974 | 40069 ft | 408 kts | 324° |
| 2026-05-07 17:15 | 29.36673 | 29.12045 | 40073 ft | 408 kts | 324° |
| 2026-05-07 17:15 | 29.41210 | 29.08114 | 40071 ft | 408 kts | 324° |
| 2026-05-07 17:16 | 29.45707 | 29.04198 | 40078 ft | 408 kts | 324° |
| 2026-05-07 17:16 | 29.50207 | 29.00259 | 40100 ft | 408 kts | 324° |
| 2026-05-07 17:17 | 29.54742 | 28.96284 | 40081 ft | 408 kts | 324° |
| 2026-05-07 17:17 | 29.59239 | 28.92339 | 40077 ft | 407 kts | 324° |
| 2026-05-07 17:18 | 29.63729 | 28.88397 | 40081 ft | 406 kts | 324° |
| 2026-05-07 17:18 | 29.68219 | 28.84450 | 40088 ft | 405 kts | 324° |
| 2026-05-07 17:19 | 29.72659 | 28.80544 | 40089 ft | 405 kts | 324° |
| 2026-05-07 17:19 | 29.77134 | 28.76601 | 40098 ft | 405 kts | 324° |
| 2026-05-07 17:20 | 29.81606 | 28.72658 | 40121 ft | 405 kts | 324° |
| 2026-05-07 17:20 | 29.86077 | 28.68710 | 40109 ft | 405 kts | 324° |
| 2026-05-07 17:21 | 29.90557 | 28.64750 | 40095 ft | 404 kts | 324° |
| 2026-05-07 17:21 | 29.94989 | 28.60827 | 40105 ft | 404 kts | 324° |
| 2026-05-07 17:22 | 29.99439 | 28.56884 | 40112 ft | 404 kts | 324° |
| 2026-05-07 17:22 | 30.03900 | 28.52927 | 40110 ft | 404 kts | 324° |
| 2026-05-07 17:23 | 30.08346 | 28.48979 | 40116 ft | 404 kts | 324° |
| 2026-05-07 17:23 | 30.12791 | 28.45027 | 40119 ft | 404 kts | 324° |
| 2026-05-07 17:24 | 30.16502 | 28.41723 | 40118 ft | 404 kts | 324° |
| 2026-05-07 17:24 | 30.21704 | 28.37087 | 40123 ft | 404 kts | 324° |
| 2026-05-07 17:25 | 30.26155 | 28.33116 | 40121 ft | 404 kts | 323° |
| 2026-05-07 17:25 | 30.29868 | 28.29799 | 40124 ft | 405 kts | 323° |
| 2026-05-07 17:26 | 30.34290 | 28.25845 | 40125 ft | 405 kts | 323° |
| 2026-05-07 17:26 | 30.38760 | 28.21844 | 40127 ft | 406 kts | 323° |
| 2026-05-07 17:27 | 30.43193 | 28.17871 | 40136 ft | 406 kts | 323° |
| 2026-05-07 17:27 | 30.47662 | 28.13860 | 40147 ft | 406 kts | 323° |
| 2026-05-07 17:28 | 30.52120 | 28.09853 | 40137 ft | 405 kts | 323° |
| 2026-05-07 17:28 | 30.56571 | 28.05850 | 40124 ft | 404 kts | 323° |
| 2026-05-07 17:29 | 30.61013 | 28.01850 | 40132 ft | 403 kts | 323° |
| 2026-05-07 17:29 | 30.65444 | 27.97854 | 40139 ft | 403 kts | 323° |
| 2026-05-07 17:30 | 30.69835 | 27.93891 | 40148 ft | 403 kts | 323° |
| 2026-05-07 17:30 | 30.74262 | 27.89889 | 40151 ft | 403 kts | 323° |
| 2026-05-07 17:31 | 30.78663 | 27.85907 | 40160 ft | 403 kts | 323° |
| 2026-05-07 17:31 | 30.83075 | 27.81909 | 40155 ft | 403 kts | 323° |
| 2026-05-07 17:32 | 30.87504 | 27.77892 | 40146 ft | 403 kts | 323° |
| 2026-05-07 17:32 | 30.91876 | 27.73921 | 40146 ft | 403 kts | 323° |
| 2026-05-07 17:33 | 30.96224 | 27.69966 | 40141 ft | 403 kts | 323° |
| 2026-05-07 17:33 | 31.00615 | 27.65969 | 40151 ft | 403 kts | 323° |
| 2026-05-07 17:34 | 31.05035 | 27.61940 | 40157 ft | 403 kts | 323° |
| 2026-05-07 17:34 | 31.09442 | 27.57918 | 40169 ft | 403 kts | 322° |
| 2026-05-07 17:35 | 31.13475 | 27.53393 | 40166 ft | 404 kts | 315° |
| 2026-05-07 17:35 | 31.16988 | 27.48227 | 40172 ft | 407 kts | 308° |
| 2026-05-07 17:36 | 31.20149 | 27.42736 | 40160 ft | 408 kts | 307° |
| 2026-05-07 17:36 | 31.23314 | 27.37229 | 40159 ft | 408 kts | 308° |
| 2026-05-07 17:37 | 31.26491 | 27.31735 | 40155 ft | 408 kts | 308° |
| 2026-05-07 17:37 | 31.29703 | 27.26283 | 40149 ft | 406 kts | 311° |
| 2026-05-07 17:38 | 31.33573 | 27.21599 | 40161 ft | 403 kts | 319° |
| 2026-05-07 17:38 | 31.38007 | 27.17606 | 40159 ft | 402 kts | 327° |
| 2026-05-07 17:39 | 31.42698 | 27.14122 | 40149 ft | 403 kts | 328° |
| 2026-05-07 17:39 | 31.47445 | 27.10622 | 40162 ft | 404 kts | 327° |
| 2026-05-07 17:40 | 31.52208 | 27.07079 | 40159 ft | 405 kts | 327° |
| 2026-05-07 17:40 | 31.56928 | 27.03546 | 40156 ft | 405 kts | 327° |
| 2026-05-07 17:41 | 31.61686 | 26.99973 | 40151 ft | 406 kts | 327° |
| 2026-05-07 17:41 | 31.66454 | 26.96387 | 40152 ft | 406 kts | 327° |
| 2026-05-07 17:42 | 31.71215 | 26.92801 | 40157 ft | 406 kts | 327° |
| 2026-05-07 17:42 | 31.75963 | 26.89222 | 40159 ft | 406 kts | 327° |
| 2026-05-07 17:43 | 31.80690 | 26.85653 | 40150 ft | 405 kts | 327° |
| 2026-05-07 17:43 | 31.85461 | 26.82047 | 40153 ft | 405 kts | 327° |
| 2026-05-07 17:44 | 31.90173 | 26.78481 | 40152 ft | 405 kts | 327° |
| 2026-05-07 17:44 | 31.94920 | 26.74885 | 40155 ft | 405 kts | 327° |
| 2026-05-07 17:45 | 31.99672 | 26.71280 | 40154 ft | 406 kts | 327° |
| 2026-05-07 17:45 | 32.04418 | 26.67675 | 40168 ft | 406 kts | 327° |
| 2026-05-07 17:46 | 32.09167 | 26.64064 | 40148 ft | 405 kts | 327° |
| 2026-05-07 17:46 | 32.13899 | 26.60460 | 40149 ft | 405 kts | 327° |
| 2026-05-07 17:47 | 32.18605 | 26.56873 | 40151 ft | 405 kts | 327° |
| 2026-05-07 17:47 | 32.23336 | 26.53261 | 40149 ft | 405 kts | 327° |
| 2026-05-07 17:48 | 32.28059 | 26.49651 | 40159 ft | 405 kts | 327° |
| 2026-05-07 17:48 | 32.32795 | 26.46026 | 40178 ft | 406 kts | 327° |
| 2026-05-07 17:49 | 32.37514 | 26.42410 | 40155 ft | 407 kts | 327° |
| 2026-05-07 17:49 | 32.42263 | 26.38767 | 40166 ft | 407 kts | 327° |
| 2026-05-07 17:50 | 32.47020 | 26.35112 | 40162 ft | 406 kts | 327° |
| 2026-05-07 17:50 | 32.51767 | 26.31461 | 40169 ft | 406 kts | 327° |
| 2026-05-07 17:51 | 32.56504 | 26.27812 | 40168 ft | 406 kts | 327° |
| 2026-05-07 17:51 | 32.61207 | 26.24186 | 40170 ft | 406 kts | 326° |
| 2026-05-07 17:52 | 32.65957 | 26.20518 | 40164 ft | 406 kts | 326° |
| 2026-05-07 17:52 | 32.70694 | 26.16856 | 40164 ft | 406 kts | 326° |
| 2026-05-07 17:53 | 32.75403 | 26.13210 | 40163 ft | 406 kts | 326° |
| 2026-05-07 17:53 | 32.80143 | 26.09536 | 40151 ft | 407 kts | 326° |
| 2026-05-07 17:54 | 32.84882 | 26.05858 | 40160 ft | 407 kts | 326° |
| 2026-05-07 17:54 | 32.89628 | 26.02169 | 40157 ft | 407 kts | 326° |
| 2026-05-07 17:55 | 32.94364 | 25.98484 | 40153 ft | 407 kts | 326° |
| 2026-05-07 17:55 | 32.99108 | 25.94788 | 40149 ft | 406 kts | 326° |
| 2026-05-07 17:56 | 33.03830 | 25.91104 | 40156 ft | 406 kts | 326° |
| 2026-05-07 17:56 | 33.08560 | 25.87408 | 40166 ft | 406 kts | 326° |
| 2026-05-07 17:57 | 33.12481 | 25.84341 | 40150 ft | 406 kts | 326° |
| 2026-05-07 17:57 | 33.17965 | 25.80047 | 40148 ft | 407 kts | 326° |
| 2026-05-07 17:58 | 33.22702 | 25.76332 | 40147 ft | 407 kts | 326° |
| 2026-05-07 17:58 | 33.27431 | 25.72618 | 40148 ft | 407 kts | 326° |
| 2026-05-07 17:59 | 33.32161 | 25.68898 | 40165 ft | 407 kts | 326° |
| 2026-05-07 17:59 | 33.36900 | 25.65167 | 40169 ft | 407 kts | 326° |
| 2026-05-07 18:00 | 33.41622 | 25.61445 | 40159 ft | 407 kts | 325° |
| 2026-05-07 18:00 | 33.46328 | 25.57729 | 40159 ft | 407 kts | 325° |
| 2026-05-07 18:01 | 33.51078 | 25.53974 | 40154 ft | 407 kts | 325° |
| 2026-05-07 18:01 | 33.55769 | 25.50260 | 40154 ft | 407 kts | 325° |
| 2026-05-07 18:02 | 33.62864 | 25.44635 | 40153 ft | 407 kts | 325° |
| 2026-05-07 18:03 | 33.67582 | 25.40888 | 40147 ft | 407 kts | 325° |
| 2026-05-07 18:03 | 33.72303 | 25.37133 | 40149 ft | 407 kts | 325° |
| 2026-05-07 18:04 | 33.76951 | 25.33432 | 40153 ft | 407 kts | 325° |
| 2026-05-07 18:04 | 33.81639 | 25.29693 | 40155 ft | 407 kts | 324° |
| 2026-05-07 18:05 | 33.86357 | 25.25926 | 40152 ft | 407 kts | 324° |
| 2026-05-07 18:05 | 33.91084 | 25.22145 | 40153 ft | 408 kts | 324° |
| 2026-05-07 18:06 | 33.95809 | 25.18343 | 40152 ft | 407 kts | 322° |
| 2026-05-07 18:06 | 33.99653 | 25.13433 | 40151 ft | 407 kts | 307° |
| 2026-05-07 18:07 | 34.02396 | 25.07449 | 40159 ft | 412 kts | 294° |
| 2026-05-07 18:07 | 34.04334 | 25.00911 | 40145 ft | 413 kts | 292° |
| 2026-05-07 18:08 | 34.06237 | 24.94360 | 40156 ft | 415 kts | 292° |
| 2026-05-07 18:08 | 34.08175 | 24.87790 | 40160 ft | 416 kts | 293° |
| 2026-05-07 18:09 | 34.10130 | 24.81214 | 40141 ft | 417 kts | 293° |
| 2026-05-07 18:09 | 34.12083 | 24.74659 | 40153 ft | 418 kts | 293° |
| 2026-05-07 18:10 | 34.14049 | 24.68046 | 40163 ft | 418 kts | 293° |
| 2026-05-07 18:10 | 34.16012 | 24.61425 | 40146 ft | 418 kts | 293° |
| 2026-05-07 18:11 | 34.17965 | 24.54826 | 40145 ft | 418 kts | 293° |
| 2026-05-07 18:11 | 34.19914 | 24.48219 | 40156 ft | 417 kts | 293° |
| 2026-05-07 18:12 | 34.21858 | 24.41617 | 40140 ft | 416 kts | 293° |
| 2026-05-07 18:12 | 34.23781 | 24.35076 | 40133 ft | 415 kts | 292° |
| 2026-05-07 18:13 | 34.25710 | 24.28495 | 40143 ft | 415 kts | 292° |
| 2026-05-07 18:13 | 34.27640 | 24.21897 | 40152 ft | 416 kts | 292° |
| 2026-05-07 18:14 | 34.29252 | 24.16375 | 40147 ft | 417 kts | 292° |
| 2026-05-07 18:14 | 34.31172 | 24.09782 | 40138 ft | 418 kts | 292° |
| 2026-05-07 18:15 | 34.33414 | 24.02067 | 40154 ft | 419 kts | 292° |
| 2026-05-07 18:15 | 34.35032 | 23.96484 | 40130 ft | 420 kts | 292° |
| 2026-05-07 18:16 | 34.36966 | 23.89800 | 40134 ft | 421 kts | 292° |
| 2026-05-07 18:16 | 34.38897 | 23.83107 | 40141 ft | 421 kts | 292° |
| 2026-05-07 18:17 | 34.40812 | 23.76454 | 40133 ft | 421 kts | 292° |
| 2026-05-07 18:17 | 34.42735 | 23.69758 | 40128 ft | 421 kts | 292° |
| 2026-05-07 18:18 | 34.44648 | 23.63081 | 40136 ft | 422 kts | 292° |
| 2026-05-07 18:18 | 34.46590 | 23.56293 | 40147 ft | 429 kts | 292° |
| 2026-05-07 18:19 | 34.48552 | 23.49415 | 40139 ft | 435 kts | 292° |
| 2026-05-07 18:19 | 34.50530 | 23.42461 | 40126 ft | 437 kts | 291° |
| 2026-05-07 18:20 | 34.52509 | 23.35482 | 40119 ft | 437 kts | 291° |
| 2026-05-07 18:20 | 34.54462 | 23.28581 | 40126 ft | 436 kts | 291° |
| 2026-05-07 18:21 | 34.56423 | 23.21633 | 40129 ft | 434 kts | 291° |
| 2026-05-07 18:21 | 34.58368 | 23.14727 | 40126 ft | 432 kts | 291° |
| 2026-05-07 18:22 | 34.60308 | 23.07827 | 40114 ft | 430 kts | 291° |
| 2026-05-07 18:22 | 34.62218 | 23.00963 | 40120 ft | 429 kts | 290° |
| 2026-05-07 18:23 | 34.63598 | 22.93883 | 40117 ft | 430 kts | 285° |
| 2026-05-07 18:23 | 34.64794 | 22.86807 | 40121 ft | 430 kts | 285° |
| 2026-05-07 18:24 | 34.66001 | 22.79705 | 40112 ft | 430 kts | 285° |
| 2026-05-07 18:24 | 34.67217 | 22.72575 | 40109 ft | 430 kts | 285° |
| 2026-05-07 18:25 | 34.68427 | 22.65472 | 40098 ft | 430 kts | 285° |
| 2026-05-07 18:25 | 34.69631 | 22.58386 | 40098 ft | 430 kts | 285° |
| 2026-05-07 18:26 | 34.70842 | 22.51231 | 40099 ft | 430 kts | 284° |
| 2026-05-07 18:26 | 34.72035 | 22.44153 | 40088 ft | 429 kts | 284° |
| 2026-05-07 18:27 | 34.73221 | 22.37091 | 40093 ft | 429 kts | 284° |
| 2026-05-07 18:27 | 34.74410 | 22.29984 | 40088 ft | 428 kts | 284° |
| 2026-05-07 18:28 | 34.75591 | 22.22900 | 40090 ft | 428 kts | 284° |
| 2026-05-07 18:28 | 34.76769 | 22.15804 | 40076 ft | 428 kts | 284° |
| 2026-05-07 18:29 | 34.77946 | 22.08695 | 40078 ft | 427 kts | 284° |
| 2026-05-07 18:29 | 34.79104 | 22.01666 | 40077 ft | 427 kts | 284° |
| 2026-05-07 18:30 | 34.80269 | 21.94574 | 40080 ft | 427 kts | 284° |
| 2026-05-07 18:30 | 34.81425 | 21.87505 | 40074 ft | 427 kts | 284° |
| 2026-05-07 18:31 | 34.82582 | 21.80401 | 40069 ft | 427 kts | 284° |
| 2026-05-07 18:31 | 34.83730 | 21.73333 | 40061 ft | 426 kts | 283° |
| 2026-05-07 18:32 | 34.84877 | 21.66237 | 40066 ft | 426 kts | 283° |
| 2026-05-07 18:32 | 34.86019 | 21.59151 | 40065 ft | 426 kts | 283° |
| 2026-05-07 18:33 | 34.87146 | 21.52123 | 40058 ft | 427 kts | 283° |
| 2026-05-07 18:33 | 34.88280 | 21.45028 | 40060 ft | 427 kts | 283° |
| 2026-05-07 18:34 | 34.89409 | 21.37937 | 40055 ft | 427 kts | 283° |
| 2026-05-07 18:34 | 34.90535 | 21.30836 | 40054 ft | 427 kts | 283° |
| 2026-05-07 18:35 | 34.91659 | 21.23722 | 40053 ft | 427 kts | 283° |
| 2026-05-07 18:35 | 34.92769 | 21.16667 | 40053 ft | 427 kts | 283° |
| 2026-05-07 18:36 | 34.93883 | 21.09561 | 40043 ft | 427 kts | 282° |
| 2026-05-07 18:36 | 34.94997 | 21.02425 | 40047 ft | 428 kts | 282° |
| 2026-05-07 18:37 | 34.96105 | 20.95296 | 40043 ft | 428 kts | 282° |
| 2026-05-07 18:37 | 34.97213 | 20.88134 | 40044 ft | 429 kts | 282° |
| 2026-05-07 18:38 | 34.98308 | 20.81033 | 40041 ft | 429 kts | 282° |
| 2026-05-07 18:38 | 34.99407 | 20.73880 | 40039 ft | 430 kts | 282° |
| 2026-05-07 18:39 | 35.00505 | 20.66698 | 40043 ft | 431 kts | 282° |
| 2026-05-07 18:39 | 35.01599 | 20.59515 | 40038 ft | 431 kts | 282° |
| 2026-05-07 18:40 | 35.02693 | 20.52304 | 40036 ft | 431 kts | 282° |
| 2026-05-07 18:40 | 35.03779 | 20.45117 | 40040 ft | 431 kts | 282° |
| 2026-05-07 18:41 | 35.04855 | 20.37962 | 40033 ft | 430 kts | 282° |
| 2026-05-07 18:41 | 35.05931 | 20.30776 | 40032 ft | 430 kts | 282° |
| 2026-05-07 18:42 | 35.07002 | 20.23599 | 40032 ft | 429 kts | 282° |
| 2026-05-07 18:42 | 35.08063 | 20.16450 | 40030 ft | 429 kts | 282° |
| 2026-05-07 18:43 | 35.09125 | 20.09275 | 40028 ft | 429 kts | 281° |
| 2026-05-07 18:43 | 35.10182 | 20.02102 | 40028 ft | 430 kts | 281° |
| 2026-05-07 18:44 | 35.11233 | 19.94932 | 40027 ft | 431 kts | 281° |
| 2026-05-07 18:44 | 35.12286 | 19.87722 | 40024 ft | 431 kts | 281° |
| 2026-05-07 18:45 | 35.13336 | 19.80501 | 40025 ft | 432 kts | 281° |
| 2026-05-07 18:45 | 35.14383 | 19.73275 | 40013 ft | 432 kts | 281° |
| 2026-05-07 18:46 | 35.15425 | 19.66039 | 40020 ft | 432 kts | 281° |
| 2026-05-07 18:46 | 35.16462 | 19.58813 | 40018 ft | 432 kts | 281° |
| 2026-05-07 18:47 | 35.17490 | 19.51616 | 40012 ft | 432 kts | 281° |
| 2026-05-07 18:47 | 35.18523 | 19.44358 | 40007 ft | 431 kts | 280° |
| 2026-05-07 18:48 | 35.19545 | 19.37141 | 40004 ft | 429 kts | 280° |
| 2026-05-07 18:48 | 35.20552 | 19.29999 | 40002 ft | 428 kts | 280° |
| 2026-05-07 18:49 | 35.21556 | 19.22842 | 40005 ft | 426 kts | 280° |
| 2026-05-07 18:49 | 35.22557 | 19.15681 | 40006 ft | 426 kts | 280° |
| 2026-05-07 18:50 | 35.23550 | 19.08546 | 40008 ft | 425 kts | 279° |
| 2026-05-07 18:50 | 35.24538 | 19.01413 | 40005 ft | 425 kts | 279° |
| 2026-05-07 18:51 | 35.25521 | 18.94281 | 39999 ft | 426 kts | 279° |
| 2026-05-07 18:51 | 35.26498 | 18.87165 | 39998 ft | 426 kts | 279° |
| 2026-05-07 18:52 | 35.27477 | 18.80003 | 39993 ft | 426 kts | 279° |
| 2026-05-07 18:52 | 35.28444 | 18.72894 | 39988 ft | 427 kts | 279° |
| 2026-05-07 18:53 | 35.29416 | 18.65713 | 39997 ft | 429 kts | 279° |
| 2026-05-07 18:53 | 35.30390 | 18.58488 | 39991 ft | 430 kts | 279° |
| 2026-05-07 18:54 | 35.31361 | 18.51245 | 39989 ft | 431 kts | 279° |
| 2026-05-07 18:54 | 35.32325 | 18.44028 | 39989 ft | 432 kts | 279° |
| 2026-05-07 18:55 | 35.33294 | 18.36738 | 39992 ft | 429 kts | 279° |
| 2026-05-07 18:55 | 35.34238 | 18.29604 | 39984 ft | 426 kts | 279° |
| 2026-05-07 18:56 | 35.35181 | 18.22442 | 39980 ft | 424 kts | 279° |
| 2026-05-07 18:56 | 35.36112 | 18.15329 | 39974 ft | 422 kts | 279° |
| 2026-05-07 18:57 | 35.37037 | 18.08238 | 39978 ft | 421 kts | 279° |
| 2026-05-07 18:57 | 35.37955 | 18.01168 | 39972 ft | 422 kts | 279° |
| 2026-05-07 18:58 | 35.38872 | 17.94069 | 39977 ft | 422 kts | 278° |
| 2026-05-07 18:58 | 35.39786 | 17.86950 | 39961 ft | 424 kts | 279° |
| 2026-05-07 18:59 | 35.40702 | 17.79801 | 39966 ft | 426 kts | 279° |
| 2026-05-07 18:59 | 35.41618 | 17.72615 | 39985 ft | 427 kts | 278° |
| 2026-05-07 19:00 | 35.42530 | 17.65419 | 39959 ft | 426 kts | 278° |
| 2026-05-07 19:00 | 35.43435 | 17.58239 | 39962 ft | 424 kts | 278° |
| 2026-05-07 19:01 | 35.44323 | 17.51155 | 39964 ft | 423 kts | 278° |
| 2026-05-07 19:01 | 35.45213 | 17.44028 | 39958 ft | 422 kts | 278° |
| 2026-05-07 19:02 | 35.46097 | 17.36923 | 39969 ft | 421 kts | 277° |
| 2026-05-07 19:02 | 35.46973 | 17.29829 | 39952 ft | 420 kts | 277° |
| 2026-05-07 19:03 | 35.47701 | 17.23920 | 39953 ft | 420 kts | 277° |
| 2026-05-07 19:03 | 35.48568 | 17.16842 | 39949 ft | 420 kts | 277° |
| 2026-05-07 19:04 | 35.49573 | 17.08595 | 39947 ft | 420 kts | 277° |
| 2026-05-07 19:04 | 35.50431 | 17.01518 | 39944 ft | 420 kts | 277° |
| 2026-05-07 19:05 | 35.51151 | 16.95548 | 39945 ft | 421 kts | 277° |
| 2026-05-07 19:05 | 35.52001 | 16.88466 | 39942 ft | 422 kts | 277° |
| 2026-05-07 19:06 | 35.52853 | 16.81330 | 39939 ft | 422 kts | 277° |
| 2026-05-07 19:06 | 35.54121 | 16.70651 | 39931 ft | 423 kts | 277° |
| 2026-05-07 19:07 | 35.54964 | 16.63510 | 39931 ft | 423 kts | 276° |
| 2026-05-07 19:07 | 35.55802 | 16.56366 | 39923 ft | 422 kts | 276° |
| 2026-05-07 19:08 | 35.56635 | 16.49221 | 39924 ft | 422 kts | 276° |
| 2026-05-07 19:08 | 35.57464 | 16.42084 | 39917 ft | 422 kts | 276° |
| 2026-05-07 19:09 | 35.58289 | 16.34939 | 39922 ft | 421 kts | 276° |
| 2026-05-07 19:09 | 35.59102 | 16.27866 | 39917 ft | 420 kts | 276° |
| 2026-05-07 19:10 | 35.59912 | 16.20769 | 39914 ft | 420 kts | 276° |
| 2026-05-07 19:10 | 35.60726 | 16.13608 | 39916 ft | 419 kts | 276° |
| 2026-05-07 19:11 | 35.61524 | 16.06546 | 39911 ft | 419 kts | 276° |
| 2026-05-07 19:11 | 35.62321 | 15.99460 | 39925 ft | 419 kts | 276° |
| 2026-05-07 19:12 | 35.63116 | 15.92353 | 39911 ft | 419 kts | 275° |
| 2026-05-07 19:12 | 35.63901 | 15.85286 | 39911 ft | 420 kts | 275° |
| 2026-05-07 19:13 | 35.64687 | 15.78182 | 39900 ft | 420 kts | 275° |
| 2026-05-07 19:13 | 35.65472 | 15.71047 | 39900 ft | 420 kts | 275° |
| 2026-05-07 19:14 | 35.66252 | 15.63913 | 39907 ft | 420 kts | 275° |
| 2026-05-07 19:14 | 35.67029 | 15.56773 | 39904 ft | 421 kts | 275° |
| 2026-05-07 19:15 | 35.67801 | 15.49628 | 39897 ft | 421 kts | 275° |
| 2026-05-07 19:15 | 35.68566 | 15.42516 | 39895 ft | 422 kts | 275° |
| 2026-05-07 19:16 | 35.69332 | 15.35360 | 39906 ft | 422 kts | 275° |
| 2026-05-07 19:16 | 35.70092 | 15.28205 | 39911 ft | 422 kts | 275° |
| 2026-05-07 19:17 | 35.70848 | 15.21059 | 39903 ft | 423 kts | 275° |
| 2026-05-07 19:17 | 35.71601 | 15.13887 | 39906 ft | 423 kts | 275° |
| 2026-05-07 19:18 | 35.72352 | 15.06705 | 39907 ft | 423 kts | 275° |
| 2026-05-07 19:18 | 35.73087 | 14.99632 | 39906 ft | 423 kts | 275° |
| 2026-05-07 19:19 | 35.73840 | 14.92340 | 39919 ft | 423 kts | 275° |
| 2026-05-07 19:19 | 35.74578 | 14.85146 | 39908 ft | 423 kts | 275° |
| 2026-05-07 19:20 | 35.75308 | 14.77995 | 39890 ft | 423 kts | 275° |
| 2026-05-07 19:20 | 35.76036 | 14.70811 | 39881 ft | 422 kts | 275° |
| 2026-05-07 19:21 | 35.76761 | 14.63622 | 39866 ft | 422 kts | 275° |
| 2026-05-07 19:21 | 35.77478 | 14.56464 | 39850 ft | 422 kts | 275° |
| 2026-05-07 19:22 | 35.78193 | 14.49282 | 39856 ft | 422 kts | 275° |
| 2026-05-07 19:22 | 35.78895 | 14.42189 | 39858 ft | 422 kts | 275° |
| 2026-05-07 19:23 | 35.79597 | 14.35057 | 39870 ft | 422 kts | 274° |
| 2026-05-07 19:23 | 35.80298 | 14.27880 | 39860 ft | 422 kts | 274° |
| 2026-05-07 19:24 | 35.80992 | 14.20737 | 39905 ft | 421 kts | 274° |
| 2026-05-07 19:24 | 35.81684 | 14.13570 | 39888 ft | 420 kts | 274° |
| 2026-05-07 19:25 | 35.82370 | 14.06421 | 39900 ft | 419 kts | 274° |
| 2026-05-07 19:25 | 35.83049 | 13.99308 | 39905 ft | 418 kts | 274° |
| 2026-05-07 19:26 | 35.83721 | 13.92204 | 39903 ft | 417 kts | 274° |
| 2026-05-07 19:26 | 35.84391 | 13.85092 | 39924 ft | 417 kts | 274° |
| 2026-05-07 19:27 | 35.85048 | 13.78058 | 39908 ft | 416 kts | 274° |
| 2026-05-07 19:27 | 35.85704 | 13.70997 | 39903 ft | 415 kts | 274° |
| 2026-05-07 19:28 | 35.86358 | 13.63918 | 39907 ft | 415 kts | 274° |
| 2026-05-07 19:28 | 35.87006 | 13.56846 | 39907 ft | 414 kts | 274° |
| 2026-05-07 19:29 | 35.87649 | 13.49789 | 39904 ft | 414 kts | 274° |
| 2026-05-07 19:29 | 35.88289 | 13.42725 | 39911 ft | 414 kts | 273° |
| 2026-05-07 19:30 | 35.88919 | 13.35720 | 39904 ft | 413 kts | 273° |
| 2026-05-07 19:30 | 35.89548 | 13.28668 | 39903 ft | 412 kts | 273° |
| 2026-05-07 19:31 | 35.90169 | 13.21670 | 39907 ft | 412 kts | 273° |
| 2026-05-07 19:31 | 35.90791 | 13.14609 | 39908 ft | 412 kts | 273° |
| 2026-05-07 19:32 | 35.91406 | 13.07587 | 39915 ft | 411 kts | 272° |
| 2026-05-07 19:32 | 35.92014 | 13.00590 | 39909 ft | 411 kts | 272° |
| 2026-05-07 19:33 | 35.92619 | 12.93583 | 39912 ft | 410 kts | 272° |
| 2026-05-07 19:33 | 35.93216 | 12.86622 | 39909 ft | 410 kts | 272° |
| 2026-05-07 19:34 | 35.93810 | 12.79644 | 39910 ft | 410 kts | 272° |
| 2026-05-07 19:34 | 35.94403 | 12.72635 | 39918 ft | 410 kts | 272° |
| 2026-05-07 19:35 | 35.94989 | 12.65653 | 39906 ft | 409 kts | 272° |
| 2026-05-07 19:35 | 35.95568 | 12.58708 | 39906 ft | 408 kts | 272° |
| 2026-05-07 19:36 | 35.96149 | 12.51696 | 39906 ft | 407 kts | 272° |
| 2026-05-07 19:36 | 35.96715 | 12.44812 | 39901 ft | 407 kts | 272° |
| 2026-05-07 19:37 | 35.97283 | 12.37852 | 39918 ft | 407 kts | 271° |
| 2026-05-07 19:37 | 35.97845 | 12.30908 | 39895 ft | 405 kts | 271° |
| 2026-05-07 19:38 | 35.98401 | 12.24001 | 39898 ft | 404 kts | 271° |
| 2026-05-07 19:38 | 35.98952 | 12.17099 | 39897 ft | 403 kts | 271° |
| 2026-05-07 19:39 | 35.99487 | 12.10345 | 39900 ft | 404 kts | 271° |
| 2026-05-07 19:39 | 35.99942 | 12.04573 | 39899 ft | 405 kts | 271° |
| 2026-05-07 19:40 | 36.00570 | 11.96540 | 39899 ft | 405 kts | 271° |
| 2026-05-07 19:40 | 36.01107 | 11.89610 | 39894 ft | 405 kts | 271° |
| 2026-05-07 19:41 | 36.01640 | 11.82687 | 39893 ft | 404 kts | 271° |
| 2026-05-07 19:41 | 36.02165 | 11.75811 | 39896 ft | 404 kts | 271° |
| 2026-05-07 19:42 | 36.02688 | 11.68908 | 39898 ft | 403 kts | 271° |
| 2026-05-07 19:42 | 36.03208 | 11.61994 | 39904 ft | 403 kts | 270° |
| 2026-05-07 19:43 | 36.03724 | 11.55085 | 39897 ft | 404 kts | 270° |
| 2026-05-07 19:43 | 36.04213 | 11.48212 | 39897 ft | 403 kts | 269° |
| 2026-05-07 19:44 | 36.04397 | 11.41270 | 39894 ft | 402 kts | 267° |
| 2026-05-07 19:44 | 36.04578 | 11.34408 | 39893 ft | 402 kts | 268° |
| 2026-05-07 19:45 | 36.04807 | 11.27492 | 39895 ft | 404 kts | 267° |
| 2026-05-07 19:45 | 36.05048 | 11.20534 | 39899 ft | 405 kts | 267° |
| 2026-05-07 19:46 | 36.05284 | 11.13563 | 39901 ft | 407 kts | 267° |
| 2026-05-07 19:46 | 36.05516 | 11.06548 | 39895 ft | 408 kts | 267° |
| 2026-05-07 19:47 | 36.05740 | 10.99586 | 39894 ft | 409 kts | 267° |
| 2026-05-07 19:47 | 36.05962 | 10.92568 | 39894 ft | 409 kts | 267° |
| 2026-05-07 19:48 | 36.06180 | 10.85545 | 39896 ft | 409 kts | 267° |
| 2026-05-07 19:48 | 36.06394 | 10.78523 | 39896 ft | 408 kts | 267° |
| 2026-05-07 19:49 | 36.06604 | 10.71519 | 39908 ft | 408 kts | 267° |
| 2026-05-07 19:49 | 36.06810 | 10.64485 | 39908 ft | 408 kts | 267° |
| 2026-05-07 19:50 | 36.07010 | 10.57522 | 39911 ft | 408 kts | 267° |
| 2026-05-07 19:50 | 36.07207 | 10.50507 | 39924 ft | 409 kts | 267° |
| 2026-05-07 19:51 | 36.07829 | 10.43477 | 39919 ft | 415 kts | 274° |
| 2026-05-07 19:51 | 36.09230 | 10.36483 | 39913 ft | 422 kts | 281° |
| 2026-05-07 19:52 | 36.10786 | 10.30761 | 39906 ft | 423 kts | 281° |
| 2026-05-07 19:52 | 36.12670 | 10.23856 | 39903 ft | 424 kts | 281° |
| 2026-05-07 19:53 | 36.14517 | 10.16942 | 39920 ft | 424 kts | 280° |
| 2026-05-07 19:53 | 36.15848 | 10.09899 | 39907 ft | 417 kts | 272° |
| 2026-05-07 19:54 | 36.16689 | 10.02789 | 39908 ft | 418 kts | 272° |
| 2026-05-07 19:54 | 36.17543 | 9.95678 | 39903 ft | 418 kts | 272° |
| 2026-05-07 19:55 | 36.18401 | 9.88575 | 39909 ft | 419 kts | 272° |
| 2026-05-07 19:55 | 36.19264 | 9.81442 | 39926 ft | 419 kts | 272° |
| 2026-05-07 19:56 | 36.20126 | 9.74262 | 39914 ft | 422 kts | 272° |
| 2026-05-07 19:56 | 36.20985 | 9.67070 | 39902 ft | 424 kts | 272° |
| 2026-05-07 19:57 | 36.21847 | 9.59824 | 39915 ft | 424 kts | 272° |
| 2026-05-07 19:57 | 36.22698 | 9.52626 | 39908 ft | 425 kts | 272° |
| 2026-05-07 19:58 | 36.23549 | 9.45391 | 39934 ft | 425 kts | 272° |
| 2026-05-07 19:58 | 36.24401 | 9.38113 | 39907 ft | 426 kts | 272° |
| 2026-05-07 19:59 | 36.25286 | 9.30867 | 39899 ft | 429 kts | 275° |
| 2026-05-07 19:59 | 36.26476 | 9.23555 | 39900 ft | 430 kts | 276° |
| 2026-05-07 20:00 | 36.27686 | 9.16347 | 39903 ft | 430 kts | 275° |
| 2026-05-07 20:00 | 36.28893 | 9.09064 | 39905 ft | 430 kts | 275° |
| 2026-05-07 20:01 | 36.30083 | 9.01795 | 39904 ft | 431 kts | 275° |
| 2026-05-07 20:01 | 36.31266 | 8.94520 | 39899 ft | 431 kts | 275° |
| 2026-05-07 20:02 | 36.32444 | 8.87241 | 39889 ft | 431 kts | 275° |
| 2026-05-07 20:02 | 36.33615 | 8.79990 | 39884 ft | 430 kts | 275° |
| 2026-05-07 20:03 | 36.34784 | 8.72713 | 39897 ft | 430 kts | 275° |
| 2026-05-07 20:03 | 36.35950 | 8.65429 | 39898 ft | 430 kts | 275° |
| 2026-05-07 20:04 | 36.37104 | 8.58187 | 39893 ft | 430 kts | 275° |
| 2026-05-07 20:04 | 36.38260 | 8.50904 | 39898 ft | 430 kts | 275° |
| 2026-05-07 20:05 | 36.39409 | 8.43635 | 39890 ft | 429 kts | 275° |
| 2026-05-07 20:05 | 36.40464 | 8.36366 | 39898 ft | 424 kts | 271° |
| 2026-05-07 20:06 | 36.40807 | 8.29084 | 39903 ft | 422 kts | 267° |
| 2026-05-07 20:06 | 36.41053 | 8.21810 | 39896 ft | 422 kts | 268° |
| 2026-05-07 20:07 | 36.41311 | 8.14513 | 39907 ft | 423 kts | 267° |
| 2026-05-07 20:07 | 36.41568 | 8.07259 | 39898 ft | 423 kts | 267° |
| 2026-05-07 20:08 | 36.41823 | 7.99955 | 39902 ft | 424 kts | 267° |
| 2026-05-07 20:08 | 36.42073 | 7.92623 | 39906 ft | 425 kts | 267° |
| 2026-05-07 20:09 | 36.42319 | 7.85292 | 39893 ft | 424 kts | 267° |
| 2026-05-07 20:10 | 36.42678 | 7.74369 | 39901 ft | 424 kts | 267° |
| 2026-05-07 20:10 | 36.42913 | 7.67061 | 39905 ft | 423 kts | 267° |
| 2026-05-07 20:11 | 36.43143 | 7.59735 | 39907 ft | 424 kts | 267° |
| 2026-05-07 20:11 | 36.43368 | 7.52415 | 39916 ft | 424 kts | 267° |
| 2026-05-07 20:12 | 36.43590 | 7.45094 | 39904 ft | 425 kts | 267° |
| 2026-05-07 20:12 | 36.43808 | 7.37763 | 39910 ft | 425 kts | 267° |
| 2026-05-07 20:13 | 36.44021 | 7.30430 | 39916 ft | 425 kts | 267° |
| 2026-05-07 20:13 | 36.44228 | 7.23116 | 39903 ft | 425 kts | 267° |
| 2026-05-07 20:14 | 36.44431 | 7.15779 | 39901 ft | 425 kts | 267° |
| 2026-05-07 20:14 | 36.44631 | 7.08453 | 39911 ft | 425 kts | 267° |
| 2026-05-07 20:15 | 36.44826 | 7.01102 | 39919 ft | 426 kts | 267° |
| 2026-05-07 20:15 | 36.45016 | 6.93749 | 39913 ft | 426 kts | 267° |
| 2026-05-07 20:16 | 36.45203 | 6.86390 | 39920 ft | 426 kts | 267° |
| 2026-05-07 20:16 | 36.45384 | 6.79083 | 39928 ft | 426 kts | 267° |
| 2026-05-07 20:17 | 36.45560 | 6.71773 | 39936 ft | 426 kts | 267° |
| 2026-05-07 20:17 | 36.45734 | 6.64389 | 39941 ft | 426 kts | 267° |
| 2026-05-07 20:18 | 36.45901 | 6.57063 | 39935 ft | 426 kts | 267° |
| 2026-05-07 20:18 | 36.46066 | 6.49690 | 39912 ft | 426 kts | 267° |
| 2026-05-07 20:19 | 36.46224 | 6.42343 | 39914 ft | 426 kts | 267° |
| 2026-05-07 20:19 | 36.46379 | 6.34982 | 39912 ft | 426 kts | 267° |
| 2026-05-07 20:20 | 36.46529 | 6.27666 | 39916 ft | 426 kts | 267° |
| 2026-05-07 20:20 | 36.46674 | 6.20308 | 39911 ft | 426 kts | 267° |
| 2026-05-07 20:21 | 36.46816 | 6.12945 | 39911 ft | 426 kts | 267° |
| 2026-05-07 20:21 | 36.46952 | 6.05586 | 39928 ft | 427 kts | 267° |
| 2026-05-07 20:22 | 36.47085 | 5.98206 | 39913 ft | 427 kts | 267° |
| 2026-05-07 20:22 | 36.47214 | 5.90826 | 39919 ft | 428 kts | 267° |
| 2026-05-07 20:23 | 36.47338 | 5.83417 | 39911 ft | 429 kts | 267° |
| 2026-05-07 20:23 | 36.47454 | 5.76026 | 39917 ft | 430 kts | 267° |
| 2026-05-07 20:24 | 36.47567 | 5.68587 | 39920 ft | 431 kts | 267° |
| 2026-05-07 20:24 | 36.47676 | 5.61125 | 39933 ft | 433 kts | 267° |
| 2026-05-07 20:25 | 36.47781 | 5.53631 | 39936 ft | 435 kts | 267° |
| 2026-05-07 20:25 | 36.47883 | 5.46091 | 39946 ft | 436 kts | 267° |
| 2026-05-07 20:26 | 36.47980 | 5.38544 | 39948 ft | 437 kts | 267° |
| 2026-05-07 20:26 | 36.48072 | 5.31026 | 39953 ft | 438 kts | 267° |
| 2026-05-07 20:27 | 36.48159 | 5.23526 | 39937 ft | 433 kts | 267° |
| 2026-05-07 20:27 | 36.48200 | 5.19747 | 39221 ft | 438 kts | 267° |
| 2026-05-07 20:27 | 36.48242 | 5.15978 | 38724 ft | 428 kts | 267° |
| 2026-05-07 20:27 | 36.48281 | 5.12326 | 37644 ft | 423 kts | 267° |
| 2026-05-07 20:28 | 36.48310 | 5.08677 | 36703 ft | 424 kts | 268° |
| 2026-05-07 20:28 | 36.48342 | 5.04998 | 35787 ft | 426 kts | 269° |
| 2026-05-07 20:28 | 36.48393 | 5.01353 | 34805 ft | 429 kts | 271° |
| 2026-05-07 20:28 | 36.48638 | 4.97645 | 33760 ft | 433 kts | 277° |
| 2026-05-07 20:29 | 36.49110 | 4.93943 | 32941 ft | 429 kts | 278° |
| 2026-05-07 20:29 | 36.49570 | 4.90361 | 32599 ft | 414 kts | 278° |
| 2026-05-07 20:29 | 36.50233 | 4.86863 | 31506 ft | 417 kts | 286° |
| 2026-05-07 20:29 | 36.51398 | 4.83535 | 30431 ft | 424 kts | 296° |
| 2026-05-07 20:30 | 36.53041 | 4.80488 | 29427 ft | 427 kts | 304° |
| 2026-05-07 20:30 | 36.55112 | 4.77818 | 28461 ft | 430 kts | 313° |
| 2026-05-07 20:30 | 36.57542 | 4.75624 | 27586 ft | 433 kts | 323° |
| 2026-05-07 20:30 | 36.60237 | 4.74000 | 26937 ft | 434 kts | 332° |
| 2026-05-07 20:31 | 36.63145 | 4.72946 | 26188 ft | 441 kts | 341° |
| 2026-05-07 20:31 | 36.66226 | 4.72439 | 25478 ft | 441 kts | 344° |
| 2026-05-07 20:31 | 36.69099 | 4.71418 | 24796 ft | 425 kts | 324° |
| 2026-05-07 20:31 | 36.71304 | 4.69156 | 24557 ft | 402 kts | 302° |
| 2026-05-07 20:32 | 36.72567 | 4.66189 | 24414 ft | 387 kts | 285° |
| 2026-05-07 20:32 | 36.73122 | 4.62950 | 24199 ft | 381 kts | 275° |
| 2026-05-07 20:32 | 36.73243 | 4.59657 | 23914 ft | 380 kts | 269° |
| 2026-05-07 20:32 | 36.73132 | 4.56349 | 23384 ft | 382 kts | 266° |
| 2026-05-07 20:33 | 36.72908 | 4.53038 | 22596 ft | 382 kts | 264° |
| 2026-05-07 20:33 | 36.72638 | 4.49758 | 21860 ft | 378 kts | 264° |
| 2026-05-07 20:33 | 36.72358 | 4.46517 | 21144 ft | 373 kts | 263° |
| 2026-05-07 20:33 | 36.72084 | 4.43325 | 20460 ft | 369 kts | 263° |
| 2026-05-07 20:34 | 36.71818 | 4.40167 | 19780 ft | 365 kts | 263° |
| 2026-05-07 20:34 | 36.71559 | 4.37029 | 19091 ft | 363 kts | 263° |
| 2026-05-07 20:34 | 36.71307 | 4.33942 | 18411 ft | 361 kts | 262° |
| 2026-05-07 20:34 | 36.71055 | 4.30841 | 17658 ft | 359 kts | 262° |
| 2026-05-07 20:35 | 36.70805 | 4.27754 | 16949 ft | 356 kts | 262° |
| 2026-05-07 20:35 | 36.70556 | 4.24688 | 16271 ft | 353 kts | 262° |
| 2026-05-07 20:35 | 36.70312 | 4.21667 | 15628 ft | 351 kts | 262° |
| 2026-05-07 20:35 | 36.70065 | 4.18636 | 14973 ft | 348 kts | 263° |
| 2026-05-07 20:36 | 36.69824 | 4.15659 | 14350 ft | 347 kts | 263° |
| 2026-05-07 20:36 | 36.69580 | 4.12668 | 13708 ft | 346 kts | 263° |
| 2026-05-07 20:36 | 36.69338 | 4.09720 | 13004 ft | 344 kts | 263° |
| 2026-05-07 20:36 | 36.69092 | 4.06729 | 12340 ft | 343 kts | 263° |
| 2026-05-07 20:37 | 36.68852 | 4.03820 | 11707 ft | 341 kts | 263° |
| 2026-05-07 20:37 | 36.68610 | 4.00886 | 11095 ft | 339 kts | 263° |
| 2026-05-07 20:37 | 36.68369 | 3.97984 | 10755 ft | 329 kts | 263° |
| 2026-05-07 20:37 | 36.68140 | 3.95223 | 10597 ft | 315 kts | 264° |
| 2026-05-07 20:38 | 36.67918 | 3.92563 | 10459 ft | 302 kts | 264° |
| 2026-05-07 20:38 | 36.67714 | 3.90117 | 10329 ft | 290 kts | 264° |
| 2026-05-07 20:38 | 36.67508 | 3.87663 | 10209 ft | 279 kts | 264° |
| 2026-05-07 20:38 | 36.67310 | 3.85309 | 10095 ft | 268 kts | 264° |
| 2026-05-07 20:39 | 36.67118 | 3.83042 | 9977 ft | 258 kts | 264° |
| 2026-05-07 20:39 | 36.66997 | 3.81596 | 9905 ft | 251 kts | 264° |
| 2026-05-07 20:39 | 36.66820 | 3.79474 | 9848 ft | 240 kts | 263° |
| 2026-05-07 20:39 | 36.66595 | 3.76804 | 9756 ft | 226 kts | 263° |
| 2026-05-07 20:40 | 36.66486 | 3.75517 | 9714 ft | 220 kts | 263° |
| 2026-05-07 20:40 | 36.66330 | 3.73663 | 9590 ft | 212 kts | 263° |
| 2026-05-07 20:40 | 36.66179 | 3.71875 | 9442 ft | 206 kts | 263° |
| 2026-05-07 20:40 | 36.66030 | 3.70124 | 9208 ft | 203 kts | 263° |
| 2026-05-07 20:41 | 36.65881 | 3.68373 | 8895 ft | 203 kts | 263° |
| 2026-05-07 20:41 | 36.65764 | 3.66625 | 8526 ft | 201 kts | 272° |
| 2026-05-07 20:41 | 36.66263 | 3.65008 | 8174 ft | 207 kts | 307° |
| 2026-05-07 20:41 | 36.67503 | 3.64035 | 8031 ft | 223 kts | 340° |
| 2026-05-07 20:42 | 36.69064 | 3.63776 | 7802 ft | 232 kts | 350° |
| 2026-05-07 20:42 | 36.70700 | 3.63670 | 7483 ft | 236 kts | 352° |
| 2026-05-07 20:42 | 36.72354 | 3.63572 | 7129 ft | 239 kts | 352° |
| 2026-05-07 20:42 | 36.74021 | 3.63475 | 6710 ft | 238 kts | 352° |
| 2026-05-07 20:43 | 36.75663 | 3.63370 | 6048 ft | 238 kts | 352° |
| 2026-05-07 20:43 | 36.77329 | 3.63252 | 5330 ft | 239 kts | 352° |
| 2026-05-07 20:43 | 36.78982 | 3.63121 | 4704 ft | 240 kts | 352° |
| 2026-05-07 20:43 | 36.80651 | 3.62940 | 4354 ft | 237 kts | 343° |
| 2026-05-07 20:44 | 36.81961 | 3.61920 | 4240 ft | 214 kts | 299° |
| 2026-05-07 20:44 | 36.82242 | 3.60232 | 4222 ft | 205 kts | 254° |
| 2026-05-07 20:44 | 36.81423 | 3.58788 | 4232 ft | 207 kts | 219° |
| 2026-05-07 20:44 | 36.80562 | 3.57970 | 4248 ft | 211 kts | 220° |
| 2026-05-07 20:45 | 36.79414 | 3.56778 | 4252 ft | 213 kts | 222° |
| 2026-05-07 20:45 | 36.78331 | 3.55573 | 4244 ft | 211 kts | 224° |
| 2026-05-07 20:45 | 36.77263 | 3.54336 | 4233 ft | 208 kts | 224° |
| 2026-05-07 20:45 | 36.76226 | 3.53110 | 4224 ft | 205 kts | 225° |
| 2026-05-07 20:46 | 36.75197 | 3.51882 | 4240 ft | 204 kts | 225° |
| 2026-05-07 20:46 | 36.74157 | 3.50634 | 4107 ft | 211 kts | 225° |
| 2026-05-07 20:46 | 36.73089 | 3.49342 | 3941 ft | 215 kts | 225° |
| 2026-05-07 20:46 | 36.72045 | 3.48038 | 3790 ft | 212 kts | 226° |
| 2026-05-07 20:47 | 36.71075 | 3.46820 | 3589 ft | 207 kts | 226° |
| 2026-05-07 20:47 | 36.70057 | 3.45547 | 3440 ft | 200 kts | 226° |
| 2026-05-07 20:47 | 36.69106 | 3.44338 | 3290 ft | 189 kts | 231° |
| 2026-05-07 20:47 | 36.68628 | 3.42946 | 3128 ft | 174 kts | 267° |
| 2026-05-07 20:48 | 36.68656 | 3.41471 | 3043 ft | 176 kts | 269° |
| 2026-05-07 20:48 | 36.68669 | 3.39958 | 2897 ft | 172 kts | 269° |
| 2026-05-07 20:48 | 36.68695 | 3.38499 | 2705 ft | 168 kts | 270° |
| 2026-05-07 20:48 | 36.68727 | 3.37069 | 2557 ft | 161 kts | 270° |
| 2026-05-07 20:49 | 36.68761 | 3.35662 | 2386 ft | 166 kts | 270° |
| 2026-05-07 20:49 | 36.68796 | 3.34221 | 2163 ft | 167 kts | 270° |
| 2026-05-07 20:49 | 36.68830 | 3.32816 | 1928 ft | 158 kts | 270° |
| 2026-05-07 20:49 | 36.68860 | 3.31499 | 1728 ft | 148 kts | 270° |
| 2026-05-07 20:50 | 36.68888 | 3.30297 | 1561 ft | 148 kts | 270° |
| 2026-05-07 20:50 | 36.68920 | 3.29012 | 1364 ft | 147 kts | 270° |
| 2026-05-07 20:50 | 36.68950 | 3.27752 | 1169 ft | 145 kts | 270° |
| 2026-05-07 20:50 | 36.68976 | 3.26690 | 1006 ft | 145 kts | 270° |
| 2026-05-07 20:51 | 36.69006 | 3.25447 | 814 ft | 144 kts | 270° |
| 2026-05-07 20:51 | 36.69034 | 3.24275 | 639 ft | 141 kts | 269° |
| 2026-05-07 20:51 | 36.69058 | 3.23245 | 458 ft | 138 kts | 269° |
| 2026-05-07 20:51 | 36.69074 | 3.22044 | 310 ft | 140 kts | 267° |
| 2026-05-07 20:52 | 36.69090 | 3.21529 | 236 ft | 144 kts | 269° |
| 2026-05-07 20:52 | 36.69104 | 3.21106 | 171 ft | 144 kts | 271° |
| 2026-05-07 20:52 | 36.69125 | 3.20438 | 132 ft | 136 kts | 267° |
| 2026-05-07 20:52 | 36.69113 | 3.19686 | 69 ft | 123 kts | 263° |